sensor_id;sensor_type;location;lat;lon;timestamp;pressure;altitude;pressure_sealevel;temperature;humidity
47556;BME280;33291;46.222;26.460;2022-12-29T00:02:10;97310.47;;;-1.34;76.25
47556;BME280;33291;46.222;26.460;2022-12-29T00:04:36;97298.56;;;-1.33;76.38
47556;BME280;33291;46.222;26.460;2022-12-29T00:07:02;97289.25;;;-1.36;76.37
47556;BME280;33291;46.222;26.460;2022-12-29T00:09:30;97293.59;;;-1.38;75.98
47556;BME280;33291;46.222;26.460;2022-12-29T00:11:56;97303.00;;;-1.40;76.07
47556;BME280;33291;46.222;26.460;2022-12-29T00:14:21;97309.66;;;-1.34;75.40
47556;BME280;33291;46.222;26.460;2022-12-29T00:17:06;97305.28;;;-1.31;75.13
47556;BME280;33291;46.222;26.460;2022-12-29T00:19:31;97311.19;;;-1.29;74.67
47556;BME280;33291;46.222;26.460;2022-12-29T00:22:16;97307.06;;;-1.33;75.19
47556;BME280;33291;46.222;26.460;2022-12-29T00:25:00;97303.91;;;-1.41;75.74
47556;BME280;33291;46.222;26.460;2022-12-29T00:27:44;97308.91;;;-1.38;74.90
47556;BME280;33291;46.222;26.460;2022-12-29T00:30:28;97315.69;;;-1.37;75.07
47556;BME280;33291;46.222;26.460;2022-12-29T00:33:14;97317.28;;;-1.33;75.14
47556;BME280;33291;46.222;26.460;2022-12-29T00:36:22;97319.88;;;-1.34;74.91
47556;BME280;33291;46.222;26.460;2022-12-29T00:38:58;97295.28;;;-1.38;75.20
47556;BME280;33291;46.222;26.460;2022-12-29T00:41:44;97306.44;;;-1.41;75.92
47556;BME280;33291;46.222;26.460;2022-12-29T00:44:28;97301.38;;;-1.42;76.68
47556;BME280;33291;46.222;26.460;2022-12-29T00:46:53;97301.47;;;-1.46;76.66
47556;BME280;33291;46.222;26.460;2022-12-29T00:49:19;97299.06;;;-1.50;75.92
47556;BME280;33291;46.222;26.460;2022-12-29T00:52:02;97297.41;;;-1.53;75.17
47556;BME280;33291;46.222;26.460;2022-12-29T00:54:29;97303.09;;;-1.43;75.34
47556;BME280;33291;46.222;26.460;2022-12-29T00:56:55;97296.28;;;-1.42;75.62
47556;BME280;33291;46.222;26.460;2022-12-29T00:59:21;97297.09;;;-1.42;75.98
47556;BME280;33291;46.222;26.460;2022-12-29T01:01:49;97289.53;;;-1.45;75.86
47556;BME280;33291;46.222;26.460;2022-12-29T01:04:15;97279.34;;;-1.47;75.88
47556;BME280;33291;46.222;26.460;2022-12-29T01:06:41;97291.53;;;-1.56;77.16
47556;BME280;33291;46.222;26.460;2022-12-29T01:09:08;97291.94;;;-1.70;77.41
47556;BME280;33291;46.222;26.460;2022-12-29T01:11:53;97294.03;;;-1.83;77.48
47556;BME280;33291;46.222;26.460;2022-12-29T01:14:19;97297.19;;;-1.75;77.53
47556;BME280;33291;46.222;26.460;2022-12-29T01:16:45;97301.34;;;-1.71;77.49
47556;BME280;33291;46.222;26.460;2022-12-29T01:19:12;97293.69;;;-1.71;77.18
47556;BME280;33291;46.222;26.460;2022-12-29T01:21:38;97291.06;;;-1.69;76.88
47556;BME280;33291;46.222;26.460;2022-12-29T01:24:03;97285.09;;;-1.68;77.03
47556;BME280;33291;46.222;26.460;2022-12-29T01:26:29;97290.22;;;-1.68;76.94
47556;BME280;33291;46.222;26.460;2022-12-29T01:28:55;97302.13;;;-1.69;76.70
47556;BME280;33291;46.222;26.460;2022-12-29T01:31:20;97299.69;;;-1.73;76.59
47556;BME280;33291;46.222;26.460;2022-12-29T01:33:46;97281.25;;;-1.83;77.19
47556;BME280;33291;46.222;26.460;2022-12-29T01:36:14;97292.13;;;-1.76;76.90
47556;BME280;33291;46.222;26.460;2022-12-29T01:38:40;97278.75;;;-1.85;77.26
47556;BME280;33291;46.222;26.460;2022-12-29T01:41:08;97274.47;;;-1.84;77.42
47556;BME280;33291;46.222;26.460;2022-12-29T01:43:48;97271.81;;;-1.81;77.46
47556;BME280;33291;46.222;26.460;2022-12-29T01:46:36;97276.41;;;-1.92;78.11
47556;BME280;33291;46.222;26.460;2022-12-29T01:49:19;97266.25;;;-1.94;77.45
47556;BME280;33291;46.222;26.460;2022-12-29T01:54:31;97264.22;;;-1.83;76.63
47556;BME280;33291;46.222;26.460;2022-12-29T01:56:59;97259.22;;;-1.87;76.43
47556;BME280;33291;46.222;26.460;2022-12-29T01:59:30;97244.00;;;-1.90;77.70
47556;BME280;33291;46.222;26.460;2022-12-29T02:01:56;97249.16;;;-1.92;78.00
47556;BME280;33291;46.222;26.460;2022-12-29T02:04:23;97228.72;;;-1.92;77.25
47556;BME280;33291;46.222;26.460;2022-12-29T02:06:54;97227.94;;;-1.94;77.98
47556;BME280;33291;46.222;26.460;2022-12-29T02:09:22;97231.22;;;-1.90;77.50
47556;BME280;33291;46.222;26.460;2022-12-29T02:11:48;97221.78;;;-1.88;77.07
47556;BME280;33291;46.222;26.460;2022-12-29T02:14:14;97219.97;;;-1.83;77.36
47556;BME280;33291;46.222;26.460;2022-12-29T02:37:59;97218.38;;;-1.87;76.78
47556;BME280;33291;46.222;26.460;2022-12-29T02:40:53;97208.16;;;-1.87;75.17
47556;BME280;33291;46.222;26.460;2022-12-29T02:43:27;97204.47;;;-1.77;75.43
47556;BME280;33291;46.222;26.460;2022-12-29T02:46:17;97209.47;;;-1.74;75.86
47556;BME280;33291;46.222;26.460;2022-12-29T02:48:51;97210.25;;;-1.72;75.51
47556;BME280;33291;46.222;26.460;2022-12-29T02:51:24;97207.69;;;-1.72;75.40
47556;BME280;33291;46.222;26.460;2022-12-29T02:53:53;97214.59;;;-1.74;75.28
47556;BME280;33291;46.222;26.460;2022-12-29T02:56:38;97218.88;;;-1.74;74.76
47556;BME280;33291;46.222;26.460;2022-12-29T02:59:03;97223.03;;;-1.72;74.79
47556;BME280;33291;46.222;26.460;2022-12-29T03:04:55;97215.59;;;-1.80;74.81
47556;BME280;33291;46.222;26.460;2022-12-29T03:13:01;97219.19;;;-1.85;74.66
47556;BME280;33291;46.222;26.460;2022-12-29T03:16:14;97205.78;;;-1.93;74.79
47556;BME280;33291;46.222;26.460;2022-12-29T03:24:25;97219.50;;;-1.98;75.54
47556;BME280;33291;46.222;26.460;2022-12-29T03:26:55;97222.88;;;-1.95;75.36
47556;BME280;33291;46.222;26.460;2022-12-29T03:29:22;97221.19;;;-1.97;75.63
47556;BME280;33291;46.222;26.460;2022-12-29T03:31:51;97185.25;;;-2.20;75.82
47556;BME280;33291;46.222;26.460;2022-12-29T03:34:20;97215.41;;;-2.02;76.27
47556;BME280;33291;46.222;26.460;2022-12-29T03:36:53;97221.38;;;-2.03;76.30
47556;BME280;33291;46.222;26.460;2022-12-29T03:39:20;97223.84;;;-2.00;76.21
47556;BME280;33291;46.222;26.460;2022-12-29T03:41:50;97218.91;;;-2.06;76.53
47556;BME280;33291;46.222;26.460;2022-12-29T03:44:18;97222.31;;;-2.07;76.77
47556;BME280;33291;46.222;26.460;2022-12-29T03:46:43;97211.44;;;-2.12;76.85
47556;BME280;33291;46.222;26.460;2022-12-29T03:49:09;97203.84;;;-2.15;76.70
47556;BME280;33291;46.222;26.460;2022-12-29T03:51:34;97198.75;;;-2.15;76.96
47556;BME280;33291;46.222;26.460;2022-12-29T03:54:00;97206.28;;;-2.10;76.72
47556;BME280;33291;46.222;26.460;2022-12-29T03:56:25;97196.09;;;-2.12;77.18
47556;BME280;33291;46.222;26.460;2022-12-29T03:58:51;97197.84;;;-2.12;76.74
47556;BME280;33291;46.222;26.460;2022-12-29T04:01:16;97178.41;;;-2.18;76.65
47556;BME280;33291;46.222;26.460;2022-12-29T04:03:42;97191.91;;;-2.15;76.81
47556;BME280;33291;46.222;26.460;2022-12-29T04:06:07;97202.13;;;-2.15;77.05
47556;BME280;33291;46.222;26.460;2022-12-29T04:08:33;97193.72;;;-2.18;77.35
47556;BME280;33291;46.222;26.460;2022-12-29T04:10:58;97184.38;;;-2.19;77.53
47556;BME280;33291;46.222;26.460;2022-12-29T04:13:24;97187.78;;;-2.19;77.68
47556;BME280;33291;46.222;26.460;2022-12-29T04:15:49;97175.94;;;-2.21;77.37
47556;BME280;33291;46.222;26.460;2022-12-29T04:18:15;97182.66;;;-2.19;77.28
47556;BME280;33291;46.222;26.460;2022-12-29T04:20:41;97188.75;;;-2.23;77.33
47556;BME280;33291;46.222;26.460;2022-12-29T04:23:27;97179.03;;;-2.40;77.92
47556;BME280;33291;46.222;26.460;2022-12-29T04:25:53;97175.84;;;-2.48;78.46
47556;BME280;33291;46.222;26.460;2022-12-29T04:28:18;97180.94;;;-2.48;78.66
47556;BME280;33291;46.222;26.460;2022-12-29T04:30:44;97170.81;;;-2.51;78.26
47556;BME280;33291;46.222;26.460;2022-12-29T04:33:10;97164.00;;;-2.51;77.85
47556;BME280;33291;46.222;26.460;2022-12-29T04:35:36;97171.41;;;-2.41;77.75
47556;BME280;33291;46.222;26.460;2022-12-29T04:38:02;97171.38;;;-2.40;77.68
47556;BME280;33291;46.222;26.460;2022-12-29T04:40:28;97178.94;;;-2.37;77.99
47556;BME280;33291;46.222;26.460;2022-12-29T04:42:53;97186.56;;;-2.35;77.67
47556;BME280;33291;46.222;26.460;2022-12-29T04:45:19;97191.75;;;-2.38;77.80
47556;BME280;33291;46.222;26.460;2022-12-29T04:47:44;97190.81;;;-2.36;77.83
47556;BME280;33291;46.222;26.460;2022-12-29T04:50:10;97202.59;;;-2.32;77.58
47556;BME280;33291;46.222;26.460;2022-12-29T04:52:35;97206.78;;;-2.29;77.60
47556;BME280;33291;46.222;26.460;2022-12-29T04:55:01;97190.84;;;-2.37;77.22
47556;BME280;33291;46.222;26.460;2022-12-29T04:57:27;97199.28;;;-2.34;77.58
47556;BME280;33291;46.222;26.460;2022-12-29T04:59:53;97185.66;;;-2.34;77.68
47556;BME280;33291;46.222;26.460;2022-12-29T05:02:18;97199.28;;;-2.34;77.77
47556;BME280;33291;46.222;26.460;2022-12-29T05:04:44;97203.47;;;-2.33;77.66
47556;BME280;33291;46.222;26.460;2022-12-29T05:07:10;97203.44;;;-2.31;77.35
47556;BME280;33291;46.222;26.460;2022-12-29T05:09:35;97183.06;;;-2.33;76.68
47556;BME280;33291;46.222;26.460;2022-12-29T05:12:01;97185.44;;;-2.26;76.82
47556;BME280;33291;46.222;26.460;2022-12-29T05:14:26;97194.91;;;-2.30;77.21
47556;BME280;33291;46.222;26.460;2022-12-29T05:16:52;97189.84;;;-2.32;77.22
47556;BME280;33291;46.222;26.460;2022-12-29T05:19:17;97189.72;;;-2.27;77.54
47556;BME280;33291;46.222;26.460;2022-12-29T05:21:43;97180.34;;;-2.26;77.63
47556;BME280;33291;46.222;26.460;2022-12-29T05:24:09;97162.72;;;-2.36;77.80
47556;BME280;33291;46.222;26.460;2022-12-29T05:26:34;97177.91;;;-2.31;77.47
47556;BME280;33291;46.222;26.460;2022-12-29T05:29:00;97175.50;;;-2.36;77.83
47556;BME280;33291;46.222;26.460;2022-12-29T05:31:26;97178.16;;;-2.40;78.32
47556;BME280;33291;46.222;26.460;2022-12-29T05:33:52;97184.03;;;-2.37;78.45
47556;BME280;33291;46.222;26.460;2022-12-29T05:36:17;97177.22;;;-2.36;78.50
47556;BME280;33291;46.222;26.460;2022-12-29T05:38:43;97173.19;;;-2.45;78.76
47556;BME280;33291;46.222;26.460;2022-12-29T05:41:09;97165.63;;;-2.48;78.48
47556;BME280;33291;46.222;26.460;2022-12-29T05:43:34;97169.00;;;-2.46;78.52
47556;BME280;33291;46.222;26.460;2022-12-29T05:46:00;97175.66;;;-2.42;78.47
47556;BME280;33291;46.222;26.460;2022-12-29T05:48:25;97182.44;;;-2.41;78.28
47556;BME280;33291;46.222;26.460;2022-12-29T05:50:51;97174.00;;;-2.43;78.85
47556;BME280;33291;46.222;26.460;2022-12-29T05:53:17;97174.84;;;-2.42;79.08
47556;BME280;33291;46.222;26.460;2022-12-29T05:55:44;97169.81;;;-2.45;79.19
47556;BME280;33291;46.222;26.460;2022-12-29T05:58:10;97160.56;;;-2.50;79.07
47556;BME280;33291;46.222;26.460;2022-12-29T06:00:35;97175.75;;;-2.45;79.26
47556;BME280;33291;46.222;26.460;2022-12-29T06:03:01;97184.13;;;-2.40;79.18
47556;BME280;33291;46.222;26.460;2022-12-29T06:05:26;97183.28;;;-2.40;79.48
47556;BME280;33291;46.222;26.460;2022-12-29T06:07:52;97173.31;;;-2.50;79.65
47556;BME280;33291;46.222;26.460;2022-12-29T06:10:17;97192.19;;;-2.55;80.37
47556;BME280;33291;46.222;26.460;2022-12-29T06:12:43;97199.16;;;-2.62;80.51
47556;BME280;33291;46.222;26.460;2022-12-29T06:15:09;97198.19;;;-2.56;80.22
47556;BME280;33291;46.222;26.460;2022-12-29T06:17:34;97200.56;;;-2.50;80.27
47556;BME280;33291;46.222;26.460;2022-12-29T06:20:00;97191.22;;;-2.51;80.18
47556;BME280;33291;46.222;26.460;2022-12-29T06:22:26;97202.00;;;-2.40;80.07
47556;BME280;33291;46.222;26.460;2022-12-29T06:24:51;97200.22;;;-2.38;80.26
47556;BME280;33291;46.222;26.460;2022-12-29T06:27:17;97199.28;;;-2.34;79.85
47556;BME280;33291;46.222;26.460;2022-12-29T06:29:42;97209.47;;;-2.34;80.31
47556;BME280;33291;46.222;26.460;2022-12-29T06:32:08;97207.97;;;-2.41;79.87
47556;BME280;33291;46.222;26.460;2022-12-29T06:34:34;97204.53;;;-2.40;80.77
47556;BME280;33291;46.222;26.460;2022-12-29T06:36:59;97195.41;;;-2.48;81.74
47556;BME280;33291;46.222;26.460;2022-12-29T06:39:25;97200.69;;;-2.55;81.82
47556;BME280;33291;46.222;26.460;2022-12-29T06:41:54;97194.72;;;-2.55;81.53
47556;BME280;33291;46.222;26.460;2022-12-29T06:44:21;97194.56;;;-2.49;81.16
47556;BME280;33291;46.222;26.460;2022-12-29T06:46:47;97202.16;;;-2.46;81.12
47556;BME280;33291;46.222;26.460;2022-12-29T06:49:12;97201.94;;;-2.38;80.81
47556;BME280;33291;46.222;26.460;2022-12-29T06:51:38;97199.06;;;-2.26;80.77
47556;BME280;33291;46.222;26.460;2022-12-29T06:54:03;97185.34;;;-2.23;81.13
47556;BME280;33291;46.222;26.460;2022-12-29T06:56:29;97193.13;;;-2.28;81.35
47556;BME280;33291;46.222;26.460;2022-12-29T06:58:54;97182.19;;;-2.32;81.22
47556;BME280;33291;46.222;26.460;2022-12-29T07:01:20;97172.06;;;-2.35;81.91
47556;BME280;33291;46.222;26.460;2022-12-29T07:03:45;97173.66;;;-2.30;81.79
47556;BME280;33291;46.222;26.460;2022-12-29T07:06:11;97188.81;;;-2.24;81.98
47556;BME280;33291;46.222;26.460;2022-12-29T07:08:37;97185.25;;;-2.20;82.26
47556;BME280;33291;46.222;26.460;2022-12-29T07:11:04;97183.66;;;-2.23;82.46
47556;BME280;33291;46.222;26.460;2022-12-29T07:13:29;97171.06;;;-2.29;82.31
47556;BME280;33291;46.222;26.460;2022-12-29T07:15:55;97159.88;;;-2.25;82.53
47556;BME280;33291;46.222;26.460;2022-12-29T07:18:20;97166.78;;;-2.28;82.47
47556;BME280;33291;46.222;26.460;2022-12-29T07:20:45;97188.81;;;-2.24;82.51
47556;BME280;33291;46.222;26.460;2022-12-29T07:23:11;97181.09;;;-2.23;82.62
47556;BME280;33291;46.222;26.460;2022-12-29T07:25:36;97185.19;;;-2.17;82.18
47556;BME280;33291;46.222;26.460;2022-12-29T07:28:03;97179.16;;;-2.15;81.99
47556;BME280;33291;46.222;26.460;2022-12-29T07:30:29;97178.19;;;-2.10;82.35
47556;BME280;33291;46.222;26.460;2022-12-29T07:32:54;97178.06;;;-2.06;82.13
47556;BME280;33291;46.222;26.460;2022-12-29T07:35:20;97175.59;;;-2.09;82.17
47556;BME280;33291;46.222;26.460;2022-12-29T07:37:45;97179.69;;;-2.03;82.20
47556;BME280;33291;46.222;26.460;2022-12-29T07:40:11;97179.56;;;-1.99;81.84
47556;BME280;33291;46.222;26.460;2022-12-29T07:42:36;97182.81;;;-1.93;81.74
47556;BME280;33291;46.222;26.460;2022-12-29T07:45:02;97175.16;;;-1.93;81.50
47556;BME280;33291;46.222;26.460;2022-12-29T07:47:28;97171.72;;;-1.92;81.71
47556;BME280;33291;46.222;26.460;2022-12-29T07:49:53;97176.66;;;-1.86;81.83
47556;BME280;33291;46.222;26.460;2022-12-29T07:52:19;97179.19;;;-1.86;81.93
47556;BME280;33291;46.222;26.460;2022-12-29T07:54:44;97190.16;;;-1.83;81.84
47556;BME280;33291;46.222;26.460;2022-12-29T07:57:10;97188.34;;;-1.79;81.64
47556;BME280;33291;46.222;26.460;2022-12-29T07:59:35;97183.06;;;-1.73;81.61
47556;BME280;33291;46.222;26.460;2022-12-29T08:02:01;97180.41;;;-1.70;81.56
47556;BME280;33291;46.222;26.460;2022-12-29T08:04:27;97141.13;;;-1.94;81.26
47556;BME280;33291;46.222;26.460;2022-12-29T08:06:52;97192.94;;;-1.62;81.38
47556;BME280;33291;46.222;26.460;2022-12-29T08:09:18;97195.50;;;-1.62;80.88
47556;BME280;33291;46.222;26.460;2022-12-29T08:11:43;97199.66;;;-1.59;81.04
47556;BME280;33291;46.222;26.460;2022-12-29T08:14:09;97205.56;;;-1.57;80.96
47556;BME280;33291;46.222;26.460;2022-12-29T08:16:35;97196.03;;;-1.52;80.66
47556;BME280;33291;46.222;26.460;2022-12-29T08:19:00;97199.34;;;-1.49;79.31
47556;BME280;33291;46.222;26.460;2022-12-29T08:21:29;97204.22;;;-1.41;80.02
47556;BME280;33291;46.222;26.460;2022-12-29T08:23:55;97201.09;;;-1.22;78.88
47556;BME280;33291;46.222;26.460;2022-12-29T08:26:20;97188.38;;;-0.99;78.24
47556;BME280;33291;46.222;26.460;2022-12-29T08:28:46;97192.09;;;-0.82;77.37
47556;BME280;33291;46.222;26.460;2022-12-29T08:31:11;97179.09;;;-0.76;77.45
47556;BME280;33291;46.222;26.460;2022-12-29T08:33:37;97184.59;;;-0.38;76.24
47556;BME280;33291;46.222;26.460;2022-12-29T08:36:05;97182.88;;;-0.14;74.79
47556;BME280;33291;46.222;26.460;2022-12-29T08:38:31;97173.09;;;0.20;73.70
47556;BME280;33291;46.222;26.460;2022-12-29T08:40:57;97172.75;;;0.29;73.36
47556;BME280;33291;46.222;26.460;2022-12-29T08:43:23;97168.47;;;0.29;73.31
47556;BME280;33291;46.222;26.460;2022-12-29T08:45:49;97162.41;;;0.32;73.40
47556;BME280;33291;46.222;26.460;2022-12-29T08:48:15;97170.63;;;0.40;72.79
47556;BME280;33291;46.222;26.460;2022-12-29T08:50:45;97138.69;;;0.27;72.18
47556;BME280;33291;46.222;26.460;2022-12-29T08:53:11;97166.16;;;0.45;72.91
47556;BME280;33291;46.222;26.460;2022-12-29T08:55:37;97163.53;;;0.47;73.13
47556;BME280;33291;46.222;26.460;2022-12-29T08:58:02;97159.88;;;0.52;72.14
47556;BME280;33291;46.222;26.460;2022-12-29T09:00:28;97147.25;;;0.48;72.48
47556;BME280;33291;46.222;26.460;2022-12-29T09:02:53;97159.00;;;0.53;73.15
47556;BME280;33291;46.222;26.460;2022-12-29T09:05:19;97154.56;;;0.57;73.49
47556;BME280;33291;46.222;26.460;2022-12-29T09:07:45;97149.25;;;0.62;72.67
47556;BME280;33291;46.222;26.460;2022-12-29T09:10:10;97148.38;;;0.63;73.16
47556;BME280;33291;46.222;26.460;2022-12-29T09:12:36;97140.69;;;0.63;73.54
47556;BME280;33291;46.222;26.460;2022-12-29T09:15:01;97137.56;;;0.77;74.16
47556;BME280;33291;46.222;26.460;2022-12-29T09:17:27;97134.81;;;1.02;72.46
47556;BME280;33291;46.222;26.460;2022-12-29T09:20:16;97134.41;;;1.32;71.22
47556;BME280;33291;46.222;26.460;2022-12-29T09:22:43;97126.28;;;1.62;69.87
47556;BME280;33291;46.222;26.460;2022-12-29T09:25:09;97122.53;;;1.88;67.86
47556;BME280;33291;46.222;26.460;2022-12-29T09:27:36;97126.94;;;2.22;67.36
47556;BME280;33291;46.222;26.460;2022-12-29T09:30:07;97118.38;;;2.41;66.11
47556;BME280;33291;46.222;26.460;2022-12-29T09:32:34;97106.28;;;2.60;65.60
47556;BME280;33291;46.222;26.460;2022-12-29T09:35:00;97109.03;;;2.92;64.75
47556;BME280;33291;46.222;26.460;2022-12-29T09:37:25;97099.91;;;3.20;62.64
47556;BME280;33291;46.222;26.460;2022-12-29T09:39:51;97098.50;;;3.48;63.17
47556;BME280;33291;46.222;26.460;2022-12-29T09:47:14;97077.91;;;4.12;60.88
47556;BME280;33291;46.222;26.460;2022-12-29T09:52:52;97068.97;;;4.63;58.38
47556;BME280;33291;46.222;26.460;2022-12-29T09:55:21;97064.16;;;4.88;57.35
47556;BME280;33291;46.222;26.460;2022-12-29T09:57:54;97071.53;;;5.08;56.94
47556;BME280;33291;46.222;26.460;2022-12-29T10:00:26;97054.69;;;5.17;56.90
47556;BME280;33291;46.222;26.460;2022-12-29T10:03:21;97060.03;;;5.43;56.10
47556;BME280;33291;46.222;26.460;2022-12-29T10:25:22;97031.19;;;6.60;52.81
47556;BME280;33291;46.222;26.460;2022-12-29T10:27:50;97022.09;;;6.80;52.53
47556;BME280;33291;46.222;26.460;2022-12-29T10:30:17;97039.28;;;6.93;52.28
47556;BME280;33291;46.222;26.460;2022-12-29T10:32:50;97028.31;;;7.03;51.18
47556;BME280;33291;46.222;26.460;2022-12-29T10:35:37;97020.66;;;7.14;51.66
47556;BME280;33291;46.222;26.460;2022-12-29T10:41:13;97015.66;;;7.37;51.72
47556;BME280;33291;46.222;26.460;2022-12-29T10:43:45;97014.59;;;7.39;50.40
47556;BME280;33291;46.222;26.460;2022-12-29T10:46:29;97010.97;;;7.42;50.96
47556;BME280;33291;46.222;26.460;2022-12-29T10:48:55;97006.31;;;7.47;50.07
47556;BME280;33291;46.222;26.460;2022-12-29T10:51:24;97006.91;;;7.51;51.37
47556;BME280;33291;46.222;26.460;2022-12-29T10:56:35;97013.56;;;7.42;51.34
47556;BME280;33291;46.222;26.460;2022-12-29T10:59:23;97013.56;;;7.42;51.40
47556;BME280;33291;46.222;26.460;2022-12-29T11:01:58;96994.19;;;7.47;51.71
47556;BME280;33291;46.222;26.460;2022-12-29T11:07:04;97003.78;;;7.58;51.64
47556;BME280;33291;46.222;26.460;2022-12-29T11:09:34;97002.22;;;7.56;49.90
47556;BME280;33291;46.222;26.460;2022-12-29T11:12:30;97003.03;;;7.69;49.04
47556;BME280;33291;46.222;26.460;2022-12-29T11:15:11;97004.41;;;7.86;48.88
47556;BME280;33291;46.222;26.460;2022-12-29T11:20:27;96999.13;;;8.12;47.77
47556;BME280;33291;46.222;26.460;2022-12-29T11:22:54;97001.69;;;8.25;47.54
47556;BME280;33291;46.222;26.460;2022-12-29T11:25:19;96996.06;;;8.42;47.09
47556;BME280;33291;46.222;26.460;2022-12-29T11:28:12;96978.31;;;8.49;45.75
47556;BME280;33291;46.222;26.460;2022-12-29T11:30:39;96986.81;;;8.62;47.57
47556;BME280;33291;46.222;26.460;2022-12-29T11:33:04;96987.16;;;8.58;47.70
47556;BME280;33291;46.222;26.460;2022-12-29T11:35:38;96990.63;;;8.69;48.07
47556;BME280;33291;46.222;26.460;2022-12-29T11:38:18;96996.78;;;8.80;48.08
47556;BME280;33291;46.222;26.460;2022-12-29T11:40:44;96991.03;;;8.99;47.52
47556;BME280;33291;46.222;26.460;2022-12-29T11:43:23;96994.91;;;9.04;46.88
47556;BME280;33291;46.222;26.460;2022-12-29T11:45:49;96977.31;;;9.19;46.13
47556;BME280;33291;46.222;26.460;2022-12-29T11:48:19;96967.97;;;9.39;45.06
47556;BME280;33291;46.222;26.460;2022-12-29T11:50:56;96967.63;;;9.55;43.38
47556;BME280;33291;46.222;26.460;2022-12-29T11:53:28;96958.50;;;9.50;43.81
47556;BME280;33291;46.222;26.460;2022-12-29T11:55:59;96952.59;;;9.59;44.32
47556;BME280;33291;46.222;26.460;2022-12-29T11:58:36;96958.16;;;9.66;43.73
47556;BME280;33291;46.222;26.460;2022-12-29T12:04:09;96952.53;;;9.82;43.38
47556;BME280;33291;46.222;26.460;2022-12-29T12:06:44;96948.63;;;9.87;43.97
47556;BME280;33291;46.222;26.460;2022-12-29T12:09:20;96955.81;;;9.95;43.95
47556;BME280;33291;46.222;26.460;2022-12-29T12:11:51;96931.69;;;9.93;43.97
47556;BME280;33291;46.222;26.460;2022-12-29T12:14:46;96939.75;;;10.11;42.91
47556;BME280;33291;46.222;26.460;2022-12-29T12:17:33;96929.22;;;10.12;41.77
47556;BME280;33291;46.222;26.460;2022-12-29T12:23:38;96939.00;;;10.53;40.00
47556;BME280;33291;46.222;26.460;2022-12-29T12:26:18;96934.28;;;10.68;37.50
47556;BME280;33291;46.222;26.460;2022-12-29T12:34:09;96921.94;;;11.00;37.63
47556;BME280;33291;46.222;26.460;2022-12-29T12:37:00;96900.38;;;10.89;39.81
47556;BME280;33291;46.222;26.460;2022-12-29T12:39:32;96924.44;;;11.02;39.76
47556;BME280;33291;46.222;26.460;2022-12-29T12:42:49;96925.13;;;11.04;36.68
47556;BME280;33291;46.222;26.460;2022-12-29T12:51:03;96915.16;;;10.78;40.63
47556;BME280;33291;46.222;26.460;2022-12-29T12:59:42;96911.16;;;10.74;41.35
47556;BME280;33291;46.222;26.460;2022-12-29T13:07:37;96921.06;;;10.59;42.38
47556;BME280;33291;46.222;26.460;2022-12-29T13:10:35;96918.28;;;10.51;42.79
47556;BME280;33291;46.222;26.460;2022-12-29T13:18:26;96918.59;;;10.58;42.82
47556;BME280;33291;46.222;26.460;2022-12-29T13:31:41;96917.19;;;10.11;43.05
47556;BME280;33291;46.222;26.460;2022-12-29T13:34:17;96929.81;;;10.16;42.61
47556;BME280;33291;46.222;26.460;2022-12-29T13:37:09;96932.16;;;9.87;43.56
47556;BME280;33291;46.222;26.460;2022-12-29T13:39:36;96925.41;;;9.52;45.17
47556;BME280;33291;46.222;26.460;2022-12-29T13:42:04;96942.22;;;9.36;45.12
47556;BME280;33291;46.222;26.460;2022-12-29T13:44:51;96934.69;;;9.22;44.84
47556;BME280;33291;46.222;26.460;2022-12-29T13:47:40;96931.13;;;9.12;45.04
47556;BME280;33291;46.222;26.460;2022-12-29T13:50:14;96933.28;;;9.06;45.49
47556;BME280;33291;46.222;26.460;2022-12-29T13:55:32;96938.63;;;8.47;47.70
47556;BME280;33291;46.222;26.460;2022-12-29T13:58:21;96939.63;;;8.22;48.81
47556;BME280;33291;46.222;26.460;2022-12-29T14:01:28;96938.09;;;7.95;47.69
47556;BME280;33291;46.222;26.460;2022-12-29T14:04:00;96938.66;;;7.87;49.02
47556;BME280;33291;46.222;26.460;2022-12-29T14:06:31;96940.13;;;7.78;49.21
47556;BME280;33291;46.222;26.460;2022-12-29T14:09:05;96927.69;;;7.59;49.59
47556;BME280;33291;46.222;26.460;2022-12-29T14:11:33;96938.97;;;7.58;49.95
47556;BME280;33291;46.222;26.460;2022-12-29T14:14:21;96940.78;;;7.45;50.67
47556;BME280;33291;46.222;26.460;2022-12-29T14:16:47;96936.97;;;7.38;51.42
47556;BME280;33291;46.222;26.460;2022-12-29T14:19:28;96944.78;;;7.25;52.08
47556;BME280;33291;46.222;26.460;2022-12-29T14:21:59;96950.59;;;7.03;52.20
47556;BME280;33291;46.222;26.460;2022-12-29T14:24:35;96941.09;;;6.90;52.61
47556;BME280;33291;46.222;26.460;2022-12-29T14:34:52;96957.25;;;6.81;52.14
47556;BME280;33291;46.222;26.460;2022-12-29T14:42:49;96964.09;;;6.56;53.50
47556;BME280;33291;46.222;26.460;2022-12-29T14:47:50;96959.19;;;6.39;53.88
47556;BME280;33291;46.222;26.460;2022-12-29T14:50:25;96959.50;;;6.34;53.79
47556;BME280;33291;46.222;26.460;2022-12-29T14:53:00;96932.88;;;6.07;54.34
47556;BME280;33291;46.222;26.460;2022-12-29T14:58:25;96959.75;;;6.04;55.67
47556;BME280;33291;46.222;26.460;2022-12-29T15:00:52;96948.53;;;5.91;55.91
47556;BME280;33291;46.222;26.460;2022-12-29T15:03:25;96943.19;;;5.79;56.01
47556;BME280;33291;46.222;26.460;2022-12-29T15:06:08;96953.63;;;5.78;56.58
47556;BME280;33291;46.222;26.460;2022-12-29T15:11:15;96950.38;;;5.61;57.09
47556;BME280;33291;46.222;26.460;2022-12-29T15:13:43;96948.66;;;5.47;56.82
47556;BME280;33291;46.222;26.460;2022-12-29T15:16:31;96943.47;;;5.47;57.24
47556;BME280;33291;46.222;26.460;2022-12-29T15:18:58;96952.81;;;5.36;58.28
47556;BME280;33291;46.222;26.460;2022-12-29T15:21:27;96951.66;;;5.27;58.63
47556;BME280;33291;46.222;26.460;2022-12-29T15:23:54;96955.53;;;5.20;59.07
47556;BME280;33291;46.222;26.460;2022-12-29T15:26:20;96940.69;;;5.09;59.25
47556;BME280;33291;46.222;26.460;2022-12-29T15:28:50;96951.50;;;5.01;59.46
47556;BME280;33291;46.222;26.460;2022-12-29T15:31:21;96956.66;;;5.01;59.04
47556;BME280;33291;46.222;26.460;2022-12-29T15:33:51;96955.38;;;4.94;60.04
47556;BME280;33291;46.222;26.460;2022-12-29T15:36:23;96960.31;;;4.83;60.86